createdAt,value
2019-03-15T00:01:44.015Z,50.10
2019-03-15T00:04:11.368Z,50.15
2019-03-15T00:06:38.839Z,50.04
2019-03-15T00:09:09.137Z,50.07
2019-03-15T00:11:36.400Z,50.09
2019-03-15T00:14:04.671Z,50.05
2019-03-15T00:16:32.103Z,50.21
2019-03-15T00:18:59.371Z,50.20
2019-03-15T00:21:26.572Z,50.02
2019-03-15T00:23:53.779Z,50.16
2019-03-15T00:26:21.249Z,50.21
2019-03-15T00:28:51.184Z,50.21
2019-03-15T00:31:19.231Z,50.04
2019-03-15T00:33:46.664Z,50.16
2019-03-15T00:36:14.155Z,50.27
2019-03-15T00:38:41.459Z,50.31
2019-03-15T00:41:08.790Z,50.19
2019-03-15T00:43:36.055Z,50.08
2019-03-15T00:46:03.533Z,50.17
2019-03-15T00:48:30.944Z,50.32
2019-03-15T00:50:58.344Z,50.23
2019-03-15T00:53:25.614Z,50.36
2019-03-15T00:55:52.823Z,50.36
2019-03-15T00:58:20.056Z,50.30
2019-03-15T01:00:47.290Z,51.56
2019-03-15T01:03:14.491Z,52.13
2019-03-15T01:05:42.061Z,52.27
2019-03-15T01:08:09.254Z,51.89
2019-03-15T01:10:36.495Z,51.49
2019-03-15T01:13:03.703Z,51.47
2019-03-15T01:15:30.959Z,51.39
2019-03-15T01:17:58.147Z,51.33
2019-03-15T01:20:25.475Z,51.29
2019-03-15T01:22:52.721Z,51.71
2019-03-15T01:25:19.973Z,51.51
2019-03-15T01:27:47.274Z,51.47
2019-03-15T01:30:14.303Z,51.60
2019-03-15T01:32:41.626Z,51.48
2019-03-15T01:35:08.950Z,51.33
2019-03-15T01:37:36.167Z,51.54
2019-03-15T01:40:03.643Z,51.33
2019-03-15T01:42:30.806Z,51.56
2019-03-15T01:44:58.022Z,51.31
2019-03-15T01:47:25.207Z,51.51
2019-03-15T01:49:52.551Z,51.34
2019-03-15T01:52:19.740Z,51.13
2019-03-15T01:54:46.927Z,51.24
2019-03-15T01:57:14.211Z,51.10
2019-03-15T01:59:41.445Z,51.25
2019-03-15T02:02:08.699Z,51.30
2019-03-15T02:04:35.927Z,51.11
2019-03-15T02:07:03.103Z,51.40
2019-03-15T02:09:30.290Z,51.24
2019-03-15T02:11:57.648Z,51.25
2019-03-15T02:14:24.827Z,51.12
2019-03-15T02:16:52.057Z,51.22
2019-03-15T02:19:19.307Z,51.34
2019-03-15T02:21:46.521Z,51.10
2019-03-15T02:24:13.754Z,51.16
2019-03-15T02:26:40.973Z,51.01
2019-03-15T02:29:08.178Z,50.99
2019-03-15T02:31:35.466Z,51.25
2019-03-15T02:34:02.705Z,50.76
2019-03-15T02:36:29.966Z,50.66
2019-03-15T02:38:57.252Z,50.73
2019-03-15T02:41:24.516Z,50.62
2019-03-15T02:43:51.847Z,50.71
2019-03-15T02:46:19.190Z,50.70
2019-03-15T02:48:46.366Z,50.76
2019-03-15T02:51:13.590Z,50.68
2019-03-15T02:53:40.823Z,50.75
2019-03-15T02:56:08.190Z,50.78
2019-03-15T02:58:35.409Z,50.83
2019-03-15T03:01:02.637Z,50.71
2019-03-15T03:03:29.849Z,50.71
2019-03-15T03:05:57.093Z,50.75
2019-03-15T03:08:24.347Z,50.98
2019-03-15T03:10:51.857Z,50.96
2019-03-15T03:13:19.167Z,51.12
2019-03-15T03:15:46.418Z,50.98
2019-03-15T03:18:13.644Z,51.25
2019-03-15T03:20:40.809Z,51.17
2019-03-15T03:23:08.148Z,51.08
2019-03-15T03:25:35.391Z,51.04
2019-03-15T03:28:02.651Z,51.04
2019-03-15T03:30:29.912Z,51.02
2019-03-15T03:32:57.173Z,50.92
2019-03-15T03:35:24.397Z,50.99
2019-03-15T03:37:51.596Z,51.12
2019-03-15T03:40:20.589Z,51.79
2019-03-15T03:42:47.983Z,52.06
2019-03-15T03:45:15.187Z,52.03
2019-03-15T03:47:43.404Z,51.67
2019-03-15T03:50:10.829Z,51.32
2019-03-15T03:52:41.485Z,51.23
2019-03-15T03:55:07.169Z,51.23
2019-03-15T03:57:34.409Z,51.29
2019-03-15T04:00:01.587Z,51.22
2019-03-15T04:02:28.971Z,51.34
2019-03-15T04:04:56.305Z,52.58
2019-03-15T04:07:25.248Z,52.03
2019-03-15T04:09:52.782Z,51.88
2019-03-15T04:12:20.213Z,51.48
2019-03-15T04:14:47.448Z,51.39
2019-03-15T04:17:19.883Z,51.46
2019-03-15T04:19:47.530Z,51.42
2019-03-15T04:22:14.806Z,52.13
2019-03-15T04:24:42.098Z,51.16
2019-03-15T04:27:09.317Z,50.96
2019-03-15T04:29:36.673Z,50.87
2019-03-15T04:32:03.975Z,50.80
2019-03-15T04:34:31.297Z,50.66
2019-03-15T04:36:58.527Z,50.68
2019-03-15T04:39:25.825Z,50.75
2019-03-15T04:41:53.075Z,50.77
2019-03-15T04:44:22.278Z,50.72
2019-03-15T04:46:49.591Z,50.74
2019-03-15T04:49:16.844Z,50.64
2019-03-15T04:51:44.338Z,50.60
2019-03-15T04:54:11.649Z,50.59
2019-03-15T04:56:38.907Z,50.56
2019-03-15T04:59:06.295Z,50.48
2019-03-15T05:01:33.560Z,50.52
2019-03-15T05:04:00.807Z,50.53
2019-03-15T05:06:27.981Z,50.38
2019-03-15T05:08:55.321Z,50.46
2019-03-15T05:11:22.500Z,50.44
2019-03-15T05:13:49.678Z,50.44
2019-03-15T05:16:17.042Z,50.32
2019-03-15T05:18:44.258Z,50.37
2019-03-15T05:21:11.438Z,50.36
2019-03-15T05:23:38.664Z,50.80
2019-03-15T05:26:05.929Z,50.81
2019-03-15T05:28:33.197Z,50.55
2019-03-15T05:31:00.430Z,50.51
2019-03-15T05:33:31.162Z,50.67
2019-03-15T05:35:58.835Z,50.95
2019-03-15T05:38:26.161Z,50.73
2019-03-15T05:40:53.489Z,50.66
2019-03-15T05:43:20.690Z,50.51
2019-03-15T05:45:48.044Z,50.45
2019-03-15T05:48:15.217Z,50.40
2019-03-15T05:50:42.409Z,50.24
2019-03-15T05:53:09.606Z,50.15
2019-03-15T05:55:36.805Z,50.05
2019-03-15T05:58:04.056Z,49.91
2019-03-15T06:00:31.221Z,49.85
2019-03-15T06:02:58.596Z,50.39
2019-03-15T06:05:25.795Z,50.39
2019-03-15T06:07:52.952Z,50.22
2019-03-15T06:10:20.195Z,50.16
2019-03-15T06:12:47.388Z,49.98
2019-03-15T06:15:14.731Z,49.94
2019-03-15T06:17:42.065Z,50.34
2019-03-15T06:20:09.389Z,50.26
2019-03-15T06:22:37.916Z,50.11
2019-03-15T06:25:05.228Z,50.45
2019-03-15T06:27:32.399Z,50.80
2019-03-15T06:29:59.613Z,50.43
2019-03-15T06:32:26.837Z,50.17
2019-03-15T06:34:54.005Z,50.00
2019-03-15T06:37:21.233Z,49.89
2019-03-15T06:39:48.491Z,49.88
2019-03-15T06:42:15.686Z,49.84
2019-03-15T06:44:42.889Z,49.78
2019-03-15T06:47:10.090Z,49.72
2019-03-15T06:49:37.306Z,49.59
2019-03-15T06:52:04.521Z,49.57
2019-03-15T06:54:31.732Z,49.47
2019-03-15T06:56:59.109Z,49.72
2019-03-15T06:59:26.364Z,49.48
2019-03-15T07:01:53.599Z,49.35
2019-03-15T07:04:20.827Z,49.48
2019-03-15T07:06:48.041Z,49.74
2019-03-15T07:09:15.219Z,49.59
2019-03-15T07:11:42.427Z,49.53
2019-03-15T07:14:09.656Z,49.43
2019-03-15T07:16:38.245Z,49.37
2019-03-15T07:19:05.723Z,49.30
2019-03-15T07:21:32.912Z,49.23
2019-03-15T07:24:00.115Z,49.18
2019-03-15T07:26:27.392Z,49.20
2019-03-15T07:28:54.717Z,49.14
2019-03-15T07:31:21.918Z,49.08
2019-03-15T07:33:49.731Z,48.96
2019-03-15T07:36:17.180Z,48.87
2019-03-15T07:38:44.377Z,48.81
2019-03-15T07:41:12.154Z,48.72
2019-03-15T07:43:39.527Z,48.57
2019-03-15T07:46:06.753Z,48.48
2019-03-15T07:48:34.361Z,48.41
2019-03-15T07:51:01.617Z,48.33
2019-03-15T07:53:28.809Z,48.32
2019-03-15T07:55:56.066Z,48.21
2019-03-15T07:58:23.259Z,48.13
2019-03-15T08:00:50.429Z,48.11
2019-03-15T08:03:17.648Z,48.01
2019-03-15T08:05:44.830Z,47.93
2019-03-15T08:08:12.050Z,47.83
2019-03-15T08:10:39.373Z,47.82
2019-03-15T08:13:06.582Z,47.76
2019-03-15T08:15:33.931Z,47.67
2019-03-15T08:18:01.428Z,47.67
2019-03-15T08:20:28.603Z,47.64
2019-03-15T08:22:55.826Z,47.58
2019-03-15T08:25:23.086Z,47.54
2019-03-15T08:27:50.313Z,47.52
2019-03-15T08:30:17.543Z,47.45
2019-03-15T08:32:44.944Z,47.37
2019-03-15T08:35:12.108Z,47.40
2019-03-15T08:37:39.263Z,47.43
2019-03-15T08:40:07.402Z,47.39
2019-03-15T08:42:34.935Z,47.38
2019-03-15T08:45:02.322Z,47.47
2019-03-15T08:47:29.498Z,47.42
2019-03-15T08:49:56.770Z,47.38
2019-03-15T08:52:23.979Z,47.37
2019-03-15T08:55:04.217Z,47.35
2019-03-15T08:57:20.305Z,47.28
2019-03-15T08:59:55.545Z,47.24
2019-03-15T09:02:16.714Z,47.15
2019-03-15T09:04:44.022Z,47.04
2019-03-15T09:07:11.234Z,47.01
2019-03-15T09:09:38.615Z,47.02
2019-03-15T09:12:05.847Z,46.93
2019-03-15T09:14:33.056Z,46.94
2019-03-15T09:17:00.278Z,46.87
2019-03-15T09:19:27.457Z,46.83
2019-03-15T09:21:54.677Z,46.72
2019-03-15T09:24:21.856Z,46.64
2019-03-15T09:26:49.063Z,46.63
2019-03-15T09:29:16.257Z,46.59
2019-03-15T09:31:47.950Z,46.52
2019-03-15T09:34:12.829Z,46.49
2019-03-15T09:36:49.931Z,46.46
2019-03-15T09:39:09.182Z,46.47
2019-03-15T09:41:39.907Z,46.41
2019-03-15T09:44:05.499Z,46.42
2019-03-15T09:46:32.691Z,46.39
2019-03-15T09:49:00.024Z,46.45
2019-03-15T09:51:27.263Z,46.40
2019-03-15T09:53:54.438Z,46.37
2019-03-15T09:56:21.658Z,46.31
2019-03-15T09:58:48.878Z,46.31
2019-03-15T10:01:33.627Z,46.40
2019-03-15T10:03:45.221Z,46.47
2019-03-15T10:06:16.599Z,46.49
2019-03-15T10:08:41.515Z,46.51
2019-03-15T10:11:08.770Z,46.51
2019-03-15T10:13:36.045Z,46.40
2019-03-15T10:16:03.245Z,46.46
2019-03-15T10:18:30.495Z,46.50
2019-03-15T10:20:57.690Z,46.47
2019-03-15T10:23:24.974Z,46.40
2019-03-15T10:25:52.159Z,46.43
2019-03-15T10:28:19.392Z,46.49
2019-03-15T10:30:46.603Z,46.43
2019-03-15T10:33:13.786Z,46.42
2019-03-15T10:35:41.030Z,46.38
2019-03-15T10:38:08.222Z,46.33
2019-03-15T10:40:35.519Z,46.32
2019-03-15T10:43:02.854Z,46.30
2019-03-15T10:45:30.006Z,46.27
2019-03-15T10:47:57.163Z,46.22
2019-03-15T10:50:24.424Z,46.11
2019-03-15T10:52:53.835Z,46.12
2019-03-15T10:55:21.006Z,46.20
2019-03-15T10:57:48.238Z,46.16
2019-03-15T11:00:15.583Z,46.15
2019-03-15T11:02:42.775Z,46.15
2019-03-15T11:05:10.108Z,46.21
2019-03-15T11:07:37.414Z,46.26
2019-03-15T11:10:10.985Z,46.32
2019-03-15T11:12:38.519Z,46.38
2019-03-15T11:15:06.598Z,46.46
2019-03-15T11:17:33.837Z,46.41
2019-03-15T11:20:01.069Z,46.42
2019-03-15T11:22:28.331Z,46.42
2019-03-15T11:24:55.934Z,46.45
2019-03-15T11:27:23.240Z,46.43
2019-03-15T11:29:50.499Z,46.44
2019-03-15T11:32:17.767Z,46.44
2019-03-15T11:34:44.988Z,46.42
2019-03-15T11:37:12.387Z,46.41
2019-03-15T11:39:39.659Z,46.45
2019-03-15T11:42:06.906Z,46.55
2019-03-15T11:44:34.146Z,46.57
2019-03-15T11:47:01.532Z,46.61
2019-03-15T11:49:28.823Z,46.61
2019-03-15T11:51:56.100Z,46.63
2019-03-15T11:54:23.396Z,46.60
2019-03-15T11:56:51.008Z,46.58
2019-03-15T11:59:18.439Z,46.55
2019-03-15T12:01:45.697Z,46.56
2019-03-15T12:04:12.878Z,46.58
2019-03-15T12:06:40.107Z,46.58
2019-03-15T12:09:07.951Z,46.62
2019-03-15T12:11:36.392Z,46.63
2019-03-15T12:14:03.653Z,46.63
2019-03-15T12:16:30.915Z,46.67
2019-03-15T12:18:58.209Z,46.66
2019-03-15T12:21:25.440Z,46.63
2019-03-15T12:23:52.650Z,46.69
2019-03-15T12:26:40.613Z,46.81
2019-03-15T12:29:06.297Z,46.87
2019-03-15T12:31:34.739Z,46.94
2019-03-15T12:34:01.978Z,47.02
2019-03-15T12:36:29.380Z,47.06
2019-03-15T12:38:58.440Z,47.05
2019-03-15T12:41:25.693Z,47.09
2019-03-15T12:43:53.045Z,47.09
2019-03-15T12:46:20.275Z,47.13
2019-03-15T12:48:49.010Z,47.13
2019-03-15T12:51:16.366Z,47.13
2019-03-15T12:53:44.993Z,47.05
2019-03-15T12:56:12.260Z,46.94
2019-03-15T12:58:39.456Z,46.88
2019-03-15T13:01:06.652Z,47.08
2019-03-15T13:03:33.923Z,46.87
2019-03-15T13:06:01.227Z,46.61
2019-03-15T13:08:28.511Z,46.59
2019-03-15T13:10:55.737Z,46.62
2019-03-15T13:13:22.992Z,46.45
2019-03-15T13:15:50.175Z,46.47
2019-03-15T13:18:17.359Z,46.53
2019-03-15T13:20:44.558Z,46.78
2019-03-15T13:23:11.844Z,46.90
2019-03-15T13:25:38.974Z,46.94
2019-03-15T13:28:06.225Z,46.95
2019-03-15T13:30:33.420Z,46.81
2019-03-15T13:33:00.655Z,46.66
2019-03-15T13:35:27.831Z,46.51
2019-03-15T13:37:55.171Z,46.40
2019-03-15T13:40:22.394Z,46.29
2019-03-15T13:42:49.612Z,46.23
2019-03-15T13:45:16.791Z,46.19
2019-03-15T13:47:44.012Z,46.27
2019-03-15T13:50:11.356Z,46.31
2019-03-15T13:52:38.523Z,46.05
2019-03-15T13:55:05.882Z,46.09
2019-03-15T13:57:33.062Z,46.19
2019-03-15T14:00:00.416Z,46.18
2019-03-15T14:02:27.600Z,46.04
2019-03-15T14:04:54.796Z,45.91
2019-03-15T14:07:22.003Z,45.59
2019-03-15T14:09:49.222Z,45.50
2019-03-15T14:12:16.521Z,45.33
2019-03-15T14:14:43.882Z,44.91
2019-03-15T14:17:11.091Z,44.29
2019-03-15T14:19:38.310Z,44.04
2019-03-15T14:22:06.330Z,43.18
2019-03-15T14:24:33.831Z,42.95
2019-03-15T14:27:01.024Z,42.92
2019-03-15T14:29:28.238Z,42.91
2019-03-15T14:31:55.497Z,43.35
2019-03-15T14:34:22.707Z,42.60
2019-03-15T14:36:50.103Z,42.42
2019-03-15T14:39:17.606Z,42.56
2019-03-15T14:41:44.772Z,41.92
2019-03-15T14:44:12.237Z,41.88
2019-03-15T14:46:39.478Z,42.44
2019-03-15T14:49:06.663Z,41.32
2019-03-15T14:51:33.971Z,40.95
2019-03-15T14:54:01.148Z,41.42
2019-03-15T14:56:28.349Z,41.68
2019-03-15T14:58:55.585Z,42.42
2019-03-15T15:01:22.814Z,43.05
2019-03-15T15:03:50.047Z,43.01
2019-03-15T15:06:17.251Z,43.06
2019-03-15T15:08:44.431Z,42.65
2019-03-15T15:11:11.662Z,42.47
2019-03-15T15:13:38.833Z,42.38
2019-03-15T15:16:06.031Z,42.20
2019-03-15T15:18:33.252Z,42.10
2019-03-15T15:21:00.472Z,41.79
2019-03-15T15:23:27.680Z,41.83
2019-03-15T15:25:54.892Z,42.44
2019-03-15T15:28:22.086Z,42.42
2019-03-15T15:30:49.318Z,42.22
2019-03-15T15:33:16.510Z,42.69
2019-03-15T15:35:50.941Z,42.72
2019-03-15T15:38:18.162Z,42.60
2019-03-15T15:40:45.453Z,42.54
2019-03-15T15:43:12.700Z,42.86
2019-03-15T15:45:39.845Z,42.73
2019-03-15T15:48:07.046Z,42.74
2019-03-15T15:50:34.275Z,43.10
2019-03-15T15:53:01.429Z,43.29
2019-03-15T15:55:28.643Z,43.51
2019-03-15T15:57:55.946Z,43.61
2019-03-15T16:00:23.169Z,43.81
2019-03-15T16:02:50.365Z,43.88
2019-03-15T16:05:17.599Z,43.90
2019-03-15T16:07:44.761Z,44.03
2019-03-15T16:10:11.999Z,43.98
2019-03-15T16:12:39.240Z,43.99
2019-03-15T16:15:07.013Z,44.25
2019-03-15T16:17:34.263Z,44.53
2019-03-15T16:20:01.422Z,44.45
2019-03-15T16:22:28.679Z,44.50
2019-03-15T16:24:55.836Z,44.24
2019-03-15T16:27:23.069Z,44.35
2019-03-15T16:29:50.292Z,44.53
2019-03-15T16:32:17.639Z,44.59
2019-03-15T16:34:44.799Z,44.65
2019-03-15T16:37:11.986Z,44.84
2019-03-15T16:39:39.207Z,44.62
2019-03-15T16:42:06.389Z,44.61
2019-03-15T16:44:33.638Z,44.70
2019-03-15T16:47:00.800Z,44.63
2019-03-15T16:49:27.984Z,44.71
2019-03-15T16:51:55.193Z,44.84
2019-03-15T16:54:22.364Z,44.80
2019-03-15T16:56:49.539Z,44.77
2019-03-15T16:59:16.743Z,45.05
2019-03-15T17:01:43.938Z,44.99
2019-03-15T17:04:11.158Z,45.17
2019-03-15T17:06:38.395Z,45.29
2019-03-15T17:09:06.397Z,45.13
2019-03-15T17:11:33.634Z,45.06
2019-03-15T17:14:00.940Z,45.37
2019-03-15T17:16:28.176Z,45.48
2019-03-15T17:18:55.378Z,45.49
2019-03-15T17:21:22.744Z,45.40
2019-03-15T17:23:49.958Z,45.49
2019-03-15T17:26:17.105Z,45.59
2019-03-15T17:28:44.414Z,45.56
2019-03-15T17:31:13.503Z,45.55
2019-03-15T17:33:40.828Z,45.59
2019-03-15T17:36:08.045Z,45.52
2019-03-15T17:38:35.187Z,45.74
2019-03-15T17:41:02.418Z,45.45
2019-03-15T17:43:29.646Z,45.47
2019-03-15T17:45:56.855Z,45.54
2019-03-15T17:48:24.182Z,45.60
2019-03-15T17:50:51.371Z,45.62
2019-03-15T17:53:18.550Z,45.76
2019-03-15T17:55:45.977Z,45.74
2019-03-15T17:58:13.185Z,45.57
2019-03-15T18:00:42.460Z,45.58
2019-03-15T18:03:20.604Z,45.70
2019-03-15T18:05:38.822Z,45.55
2019-03-15T18:08:06.017Z,45.69
2019-03-15T18:10:33.272Z,45.65
2019-03-15T18:13:00.526Z,45.59
2019-03-15T18:15:27.708Z,45.79
2019-03-15T18:17:54.914Z,45.67
2019-03-15T18:20:22.124Z,45.57
2019-03-15T18:22:49.315Z,45.78
2019-03-15T18:25:16.483Z,45.83
2019-03-15T18:27:43.697Z,45.75
2019-03-15T18:30:11.074Z,45.74
2019-03-15T18:32:38.250Z,45.75
2019-03-15T18:35:05.469Z,45.72
2019-03-15T18:37:32.679Z,45.71
2019-03-15T18:39:59.970Z,45.72
2019-03-15T18:42:27.191Z,45.74
2019-03-15T18:44:54.465Z,45.68
2019-03-15T18:47:21.617Z,45.63
2019-03-15T18:49:48.833Z,45.59
2019-03-15T18:52:16.036Z,45.63
2019-03-15T18:54:43.279Z,45.60
2019-03-15T18:57:10.466Z,45.63
2019-03-15T18:59:40.128Z,45.58
2019-03-15T19:02:06.930Z,45.56
2019-03-15T19:04:34.138Z,45.61
2019-03-15T19:07:01.336Z,45.68
2019-03-15T19:09:28.513Z,45.41
2019-03-15T19:11:55.742Z,45.40
2019-03-15T19:14:22.949Z,45.53
2019-03-15T19:16:50.167Z,45.54
2019-03-15T19:19:17.362Z,45.41
2019-03-15T19:21:44.585Z,45.51
2019-03-15T19:24:11.808Z,45.34
2019-03-15T19:26:39.126Z,45.38
2019-03-15T19:29:06.293Z,45.43
2019-03-15T19:31:33.498Z,45.59
2019-03-15T19:34:00.727Z,45.51
2019-03-15T19:36:27.897Z,45.54
2019-03-15T19:38:55.166Z,45.54
2019-03-15T19:41:22.383Z,45.57
2019-03-15T19:43:49.603Z,45.51
2019-03-15T19:46:16.791Z,45.58
2019-03-15T19:48:44.038Z,45.60
2019-03-15T19:51:11.234Z,45.66
2019-03-15T19:53:38.458Z,45.68
2019-03-15T19:56:05.716Z,45.58
2019-03-15T19:58:32.914Z,45.49
2019-03-15T20:01:00.117Z,45.51
2019-03-15T20:03:27.388Z,45.59
2019-03-15T20:05:54.590Z,45.47
2019-03-15T20:08:21.747Z,45.49
2019-03-15T20:10:48.950Z,45.55
2019-03-15T20:13:16.158Z,45.52
2019-03-15T20:15:43.362Z,45.65
2019-03-15T20:18:10.575Z,45.66
2019-03-15T20:20:37.748Z,45.59
2019-03-15T20:23:04.956Z,45.65
2019-03-15T20:25:32.172Z,45.54
2019-03-15T20:27:59.350Z,45.64
2019-03-15T20:30:27.155Z,45.72
2019-03-15T20:32:54.620Z,45.64
2019-03-15T20:35:21.817Z,45.53
2019-03-15T20:37:49.016Z,45.62
2019-03-15T20:40:16.245Z,45.77
2019-03-15T20:42:43.441Z,45.58
2019-03-15T20:45:11.883Z,45.61
2019-03-15T20:47:39.081Z,45.60
2019-03-15T20:50:06.963Z,45.68
2019-03-15T20:52:34.176Z,45.77
2019-03-15T20:55:01.414Z,45.52
2019-03-15T20:57:28.679Z,45.77
2019-03-15T20:59:55.912Z,45.79
2019-03-15T21:02:23.071Z,45.74
2019-03-15T21:04:50.292Z,45.71
2019-03-15T21:07:17.512Z,45.68
2019-03-15T21:09:44.725Z,45.82
2019-03-15T21:12:11.991Z,45.79
2019-03-15T21:14:39.235Z,45.71
2019-03-15T21:17:06.423Z,45.72
2019-03-15T21:19:33.696Z,45.71
2019-03-15T21:22:00.922Z,45.68
2019-03-15T21:24:28.116Z,45.72
2019-03-15T21:26:55.266Z,45.77
2019-03-15T21:29:22.491Z,45.67
2019-03-15T21:31:49.690Z,45.70
2019-03-15T21:34:16.928Z,45.70
2019-03-15T21:36:44.147Z,45.73
2019-03-15T21:39:11.395Z,45.78
2019-03-15T21:41:38.687Z,45.69
2019-03-15T21:44:05.937Z,45.74
2019-03-15T21:46:33.190Z,45.58
2019-03-15T21:49:00.441Z,45.83
2019-03-15T21:51:27.639Z,45.77
2019-03-15T21:53:54.870Z,45.74
2019-03-15T21:56:22.120Z,45.72
2019-03-15T21:58:49.332Z,45.62
2019-03-15T22:01:16.584Z,45.72
2019-03-15T22:03:43.760Z,45.65
2019-03-15T22:06:11.032Z,45.58
2019-03-15T22:08:38.252Z,45.59
2019-03-15T22:11:05.414Z,45.72
2019-03-15T22:13:32.815Z,45.70
2019-03-15T22:15:59.991Z,45.71
2019-03-15T22:18:27.186Z,45.68
2019-03-15T22:20:54.387Z,45.71
2019-03-15T22:23:21.591Z,45.66
2019-03-15T22:25:48.820Z,45.61
2019-03-15T22:28:16.015Z,45.62
2019-03-15T22:30:43.246Z,45.57
2019-03-15T22:33:10.565Z,45.55
2019-03-15T22:35:37.745Z,45.54
2019-03-15T22:38:04.900Z,45.48
2019-03-15T22:40:32.192Z,45.61
2019-03-15T22:42:59.442Z,45.63
2019-03-15T22:45:26.646Z,45.47
2019-03-15T22:47:53.830Z,45.63
2019-03-15T22:50:21.039Z,45.54
2019-03-15T22:52:48.272Z,45.59
2019-03-15T22:55:15.506Z,45.55
2019-03-15T22:57:42.762Z,45.51
2019-03-15T23:00:11.622Z,45.49
2019-03-15T23:02:39.007Z,45.46
2019-03-15T23:05:06.298Z,45.53
2019-03-15T23:07:33.533Z,45.39
2019-03-15T23:10:00.758Z,45.56
2019-03-15T23:12:27.939Z,45.56
2019-03-15T23:14:55.253Z,45.53
2019-03-15T23:17:22.463Z,45.51
2019-03-15T23:19:49.733Z,45.54
2019-03-15T23:22:16.941Z,45.54
2019-03-15T23:24:44.132Z,45.45
2019-03-15T23:27:11.579Z,45.50
2019-03-15T23:29:38.915Z,45.78
2019-03-15T23:32:06.117Z,45.78
2019-03-15T23:34:33.366Z,45.43
2019-03-15T23:37:00.562Z,45.55
2019-03-15T23:39:27.803Z,45.56
2019-03-15T23:41:55.483Z,45.59
2019-03-15T23:44:22.763Z,45.32
2019-03-15T23:46:49.976Z,45.32
2019-03-15T23:49:17.207Z,45.44
2019-03-15T23:51:44.474Z,45.54
2019-03-15T23:54:11.705Z,45.47
2019-03-15T23:56:38.900Z,45.48
2019-03-15T23:59:06.067Z,45.49
